sensor_id;sensor_type;location;lat;lon;timestamp;P1;durP1;ratioP1;P2;durP2;ratioP2
69305;SDS011;56427;51.580;4.656;2022-08-02T00:00:46;6.73;;;1.67;;
69305;SDS011;56427;51.580;4.656;2022-08-02T00:03:11;5.67;;;1.70;;
69305;SDS011;56427;51.580;4.656;2022-08-02T00:05:37;3.87;;;1.70;;
69305;SDS011;56427;51.580;4.656;2022-08-02T00:08:02;5.43;;;1.70;;
69305;SDS011;56427;51.580;4.656;2022-08-02T00:10:28;4.30;;;1.50;;
69305;SDS011;56427;51.580;4.656;2022-08-02T00:12:53;4.97;;;1.80;;
69305;SDS011;56427;51.580;4.656;2022-08-02T00:15:18;4.13;;;1.80;;
69305;SDS011;56427;51.580;4.656;2022-08-02T00:17:44;5.10;;;1.80;;
69305;SDS011;56427;51.580;4.656;2022-08-02T00:20:10;3.83;;;1.87;;
69305;SDS011;56427;51.580;4.656;2022-08-02T00:22:36;3.88;;;1.75;;
69305;SDS011;56427;51.580;4.656;2022-08-02T00:25:02;7.60;;;2.10;;
69305;SDS011;56427;51.580;4.656;2022-08-02T00:27:27;9.20;;;2.00;;
69305;SDS011;56427;51.580;4.656;2022-08-02T00:29:53;4.50;;;2.13;;
69305;SDS011;56427;51.580;4.656;2022-08-02T00:32:19;5.53;;;2.05;;
69305;SDS011;56427;51.580;4.656;2022-08-02T00:34:45;4.95;;;1.67;;
69305;SDS011;56427;51.580;4.656;2022-08-02T00:37:11;4.70;;;1.80;;
69305;SDS011;56427;51.580;4.656;2022-08-02T00:39:36;7.93;;;2.10;;
69305;SDS011;56427;51.580;4.656;2022-08-02T00:42:01;6.17;;;1.57;;
69305;SDS011;56427;51.580;4.656;2022-08-02T00:44:27;6.82;;;1.90;;
69305;SDS011;56427;51.580;4.656;2022-08-02T00:46:53;5.37;;;1.80;;
69305;SDS011;56427;51.580;4.656;2022-08-02T00:49:18;7.67;;;2.03;;
69305;SDS011;56427;51.580;4.656;2022-08-02T00:51:43;5.03;;;1.90;;
69305;SDS011;56427;51.580;4.656;2022-08-02T00:54:09;5.53;;;2.20;;
69305;SDS011;56427;51.580;4.656;2022-08-02T00:56:34;4.63;;;1.75;;
69305;SDS011;56427;51.580;4.656;2022-08-02T00:59:00;8.27;;;2.10;;
69305;SDS011;56427;51.580;4.656;2022-08-02T01:01:26;5.32;;;2.10;;
69305;SDS011;56427;51.580;4.656;2022-08-02T01:04:07;5.60;;;1.80;;
69305;SDS011;56427;51.580;4.656;2022-08-02T01:06:34;4.40;;;1.63;;
69305;SDS011;56427;51.580;4.656;2022-08-02T01:09:01;4.65;;;1.75;;
69305;SDS011;56427;51.580;4.656;2022-08-02T01:11:28;7.15;;;1.92;;
69305;SDS011;56427;51.580;4.656;2022-08-02T01:13:57;4.10;;;2.05;;
69305;SDS011;56427;51.580;4.656;2022-08-02T01:16:28;7.38;;;2.00;;
69305;SDS011;56427;51.580;4.656;2022-08-02T01:19:10;5.10;;;1.93;;
69305;SDS011;56427;51.580;4.656;2022-08-02T01:21:57;3.83;;;1.98;;
69305;SDS011;56427;51.580;4.656;2022-08-02T01:30:27;7.55;;;2.42;;
69305;SDS011;56427;51.580;4.656;2022-08-02T01:32:57;6.60;;;1.90;;
69305;SDS011;56427;51.580;4.656;2022-08-02T01:35:32;6.07;;;2.35;;
69305;SDS011;56427;51.580;4.656;2022-08-02T01:38:06;6.45;;;1.98;;
69305;SDS011;56427;51.580;4.656;2022-08-02T01:40:38;5.53;;;2.30;;
69305;SDS011;56427;51.580;4.656;2022-08-02T01:43:08;4.65;;;2.05;;
69305;SDS011;56427;51.580;4.656;2022-08-02T01:45:36;8.57;;;2.20;;
69305;SDS011;56427;51.580;4.656;2022-08-02T01:48:03;6.18;;;2.33;;
69305;SDS011;56427;51.580;4.656;2022-08-02T01:50:31;5.88;;;2.55;;
69305;SDS011;56427;51.580;4.656;2022-08-02T01:53:02;8.00;;;2.28;;
69305;SDS011;56427;51.580;4.656;2022-08-02T01:55:36;7.82;;;2.42;;
69305;SDS011;56427;51.580;4.656;2022-08-02T01:58:02;7.73;;;2.40;;
69305;SDS011;56427;51.580;4.656;2022-08-02T02:00:31;4.95;;;2.10;;
69305;SDS011;56427;51.580;4.656;2022-08-02T02:03:00;7.95;;;2.40;;
69305;SDS011;56427;51.580;4.656;2022-08-02T02:05:29;5.40;;;2.55;;
69305;SDS011;56427;51.580;4.656;2022-08-02T02:07:57;5.40;;;2.20;;
69305;SDS011;56427;51.580;4.656;2022-08-02T02:10:28;5.73;;;2.10;;
69305;SDS011;56427;51.580;4.656;2022-08-02T02:12:55;5.30;;;2.50;;
69305;SDS011;56427;51.580;4.656;2022-08-02T02:15:24;7.00;;;2.58;;
69305;SDS011;56427;51.580;4.656;2022-08-02T02:17:51;6.30;;;2.30;;
69305;SDS011;56427;51.580;4.656;2022-08-02T02:20:19;5.97;;;2.33;;
69305;SDS011;56427;51.580;4.656;2022-08-02T02:22:45;4.13;;;2.17;;
69305;SDS011;56427;51.580;4.656;2022-08-02T02:25:12;6.15;;;2.33;;
69305;SDS011;56427;51.580;4.656;2022-08-02T02:27:42;8.00;;;2.80;;
69305;SDS011;56427;51.580;4.656;2022-08-02T02:30:18;4.80;;;2.30;;
69305;SDS011;56427;51.580;4.656;2022-08-02T02:32:44;6.30;;;2.40;;
69305;SDS011;56427;51.580;4.656;2022-08-02T02:35:12;4.82;;;2.30;;
69305;SDS011;56427;51.580;4.656;2022-08-02T02:37:40;8.25;;;2.90;;
69305;SDS011;56427;51.580;4.656;2022-08-02T02:40:08;7.07;;;2.60;;
69305;SDS011;56427;51.580;4.656;2022-08-02T02:42:35;4.50;;;2.25;;
69305;SDS011;56427;51.580;4.656;2022-08-02T02:45:02;4.63;;;2.50;;
69305;SDS011;56427;51.580;4.656;2022-08-02T02:47:29;7.90;;;2.40;;
69305;SDS011;56427;51.580;4.656;2022-08-02T02:49:56;6.88;;;2.53;;
69305;SDS011;56427;51.580;4.656;2022-08-02T02:52:23;6.38;;;2.42;;
69305;SDS011;56427;51.580;4.656;2022-08-02T02:54:50;6.53;;;2.70;;
69305;SDS011;56427;51.580;4.656;2022-08-02T02:57:17;7.13;;;2.57;;
69305;SDS011;56427;51.580;4.656;2022-08-02T02:59:44;6.22;;;2.63;;
69305;SDS011;56427;51.580;4.656;2022-08-02T03:02:10;5.13;;;2.83;;
69305;SDS011;56427;51.580;4.656;2022-08-02T03:04:37;4.95;;;2.67;;
69305;SDS011;56427;51.580;4.656;2022-08-02T03:07:05;5.50;;;2.22;;
69305;SDS011;56427;51.580;4.656;2022-08-02T03:09:30;6.30;;;2.57;;
69305;SDS011;56427;51.580;4.656;2022-08-02T03:11:55;4.30;;;2.10;;
69305;SDS011;56427;51.580;4.656;2022-08-02T03:14:21;8.00;;;2.80;;
69305;SDS011;56427;51.580;4.656;2022-08-02T03:16:48;5.03;;;2.70;;
69305;SDS011;56427;51.580;4.656;2022-08-02T03:19:16;5.78;;;2.60;;
69305;SDS011;56427;51.580;4.656;2022-08-02T03:21:43;7.00;;;2.88;;
69305;SDS011;56427;51.580;4.656;2022-08-02T03:24:10;4.40;;;2.53;;
69305;SDS011;56427;51.580;4.656;2022-08-02T03:26:36;6.03;;;2.30;;
69305;SDS011;56427;51.580;4.656;2022-08-02T03:29:02;6.85;;;2.80;;
69305;SDS011;56427;51.580;4.656;2022-08-02T03:31:28;7.30;;;2.38;;
69305;SDS011;56427;51.580;4.656;2022-08-02T03:33:57;4.87;;;2.40;;
69305;SDS011;56427;51.580;4.656;2022-08-02T03:36:24;7.93;;;2.67;;
69305;SDS011;56427;51.580;4.656;2022-08-02T03:38:51;7.00;;;2.70;;
69305;SDS011;56427;51.580;4.656;2022-08-02T03:41:18;5.23;;;2.50;;
69305;SDS011;56427;51.580;4.656;2022-08-02T03:43:45;6.38;;;2.40;;
69305;SDS011;56427;51.580;4.656;2022-08-02T03:46:12;9.02;;;2.72;;
69305;SDS011;56427;51.580;4.656;2022-08-02T03:48:39;8.35;;;2.78;;
69305;SDS011;56427;51.580;4.656;2022-08-02T03:51:05;4.87;;;2.70;;
69305;SDS011;56427;51.580;4.656;2022-08-02T03:53:31;5.68;;;2.60;;
69305;SDS011;56427;51.580;4.656;2022-08-02T03:55:57;7.47;;;2.90;;
69305;SDS011;56427;51.580;4.656;2022-08-02T03:58:24;9.02;;;3.00;;
69305;SDS011;56427;51.580;4.656;2022-08-02T04:00:54;4.97;;;2.58;;
69305;SDS011;56427;51.580;4.656;2022-08-02T04:03:21;9.37;;;2.60;;
69305;SDS011;56427;51.580;4.656;2022-08-02T04:05:47;9.60;;;3.08;;
69305;SDS011;56427;51.580;4.656;2022-08-02T04:08:13;7.68;;;3.10;;
69305;SDS011;56427;51.580;4.656;2022-08-02T04:10:38;5.43;;;2.90;;
69305;SDS011;56427;51.580;4.656;2022-08-02T04:13:23;7.30;;;3.17;;
69305;SDS011;56427;51.580;4.656;2022-08-02T04:15:53;6.82;;;3.22;;
69305;SDS011;56427;51.580;4.656;2022-08-02T04:18:21;6.13;;;3.10;;
69305;SDS011;56427;51.580;4.656;2022-08-02T04:20:53;7.60;;;3.35;;
69305;SDS011;56427;51.580;4.656;2022-08-02T04:23:19;7.40;;;3.40;;
69305;SDS011;56427;51.580;4.656;2022-08-02T04:25:48;7.25;;;3.00;;
69305;SDS011;56427;51.580;4.656;2022-08-02T04:28:14;9.75;;;3.72;;
69305;SDS011;56427;51.580;4.656;2022-08-02T04:30:40;6.17;;;3.30;;
69305;SDS011;56427;51.580;4.656;2022-08-02T04:33:06;6.50;;;3.00;;
69305;SDS011;56427;51.580;4.656;2022-08-02T04:35:32;8.03;;;3.30;;
69305;SDS011;56427;51.580;4.656;2022-08-02T04:37:57;7.55;;;3.42;;
69305;SDS011;56427;51.580;4.656;2022-08-02T04:40:23;6.57;;;3.60;;
69305;SDS011;56427;51.580;4.656;2022-08-02T04:42:48;7.63;;;3.73;;
69305;SDS011;56427;51.580;4.656;2022-08-02T04:45:14;6.72;;;3.95;;
69305;SDS011;56427;51.580;4.656;2022-08-02T04:47:40;9.70;;;3.53;;
69305;SDS011;56427;51.580;4.656;2022-08-02T04:50:06;7.93;;;3.50;;
69305;SDS011;56427;51.580;4.656;2022-08-02T04:52:31;9.90;;;4.13;;
69305;SDS011;56427;51.580;4.656;2022-08-02T04:54:57;9.87;;;4.27;;
69305;SDS011;56427;51.580;4.656;2022-08-02T04:57:22;7.03;;;3.83;;
69305;SDS011;56427;51.580;4.656;2022-08-02T05:00:06;7.85;;;4.00;;
69305;SDS011;56427;51.580;4.656;2022-08-02T05:02:32;7.65;;;4.10;;
69305;SDS011;56427;51.580;4.656;2022-08-02T05:04:59;11.73;;;4.35;;
69305;SDS011;56427;51.580;4.656;2022-08-02T05:07:24;8.67;;;4.60;;
69305;SDS011;56427;51.580;4.656;2022-08-02T05:09:49;7.57;;;3.90;;
69305;SDS011;56427;51.580;4.656;2022-08-02T05:12:14;9.30;;;4.17;;
69305;SDS011;56427;51.580;4.656;2022-08-02T05:14:40;9.50;;;5.07;;
69305;SDS011;56427;51.580;4.656;2022-08-02T05:17:05;11.00;;;4.43;;
69305;SDS011;56427;51.580;4.656;2022-08-02T05:19:30;11.57;;;4.30;;
69305;SDS011;56427;51.580;4.656;2022-08-02T05:21:56;10.80;;;4.53;;
69305;SDS011;56427;51.580;4.656;2022-08-02T05:24:21;7.70;;;3.77;;
69305;SDS011;56427;51.580;4.656;2022-08-02T05:26:46;10.10;;;4.77;;
69305;SDS011;56427;51.580;4.656;2022-08-02T05:29:12;7.40;;;4.10;;
69305;SDS011;56427;51.580;4.656;2022-08-02T05:31:37;10.53;;;4.20;;
69305;SDS011;56427;51.580;4.656;2022-08-02T05:34:02;12.07;;;4.43;;
69305;SDS011;56427;51.580;4.656;2022-08-02T05:36:27;11.87;;;5.50;;
69305;SDS011;56427;51.580;4.656;2022-08-02T05:38:53;12.17;;;5.67;;
69305;SDS011;56427;51.580;4.656;2022-08-02T05:41:19;9.70;;;4.90;;
69305;SDS011;56427;51.580;4.656;2022-08-02T05:43:45;9.33;;;5.00;;
69305;SDS011;56427;51.580;4.656;2022-08-02T05:46:11;9.13;;;4.78;;
69305;SDS011;56427;51.580;4.656;2022-08-02T05:48:36;12.98;;;5.53;;
69305;SDS011;56427;51.580;4.656;2022-08-02T05:51:04;11.23;;;5.07;;
69305;SDS011;56427;51.580;4.656;2022-08-02T05:58:55;8.13;;;5.03;;
69305;SDS011;56427;51.580;4.656;2022-08-02T06:01:28;11.68;;;5.60;;
69305;SDS011;56427;51.580;4.656;2022-08-02T06:04:08;12.77;;;6.23;;
69305;SDS011;56427;51.580;4.656;2022-08-02T06:06:35;12.77;;;6.63;;
69305;SDS011;56427;51.580;4.656;2022-08-02T06:09:22;11.70;;;6.68;;
69305;SDS011;56427;51.580;4.656;2022-08-02T06:11:50;13.05;;;6.60;;
69305;SDS011;56427;51.580;4.656;2022-08-02T06:14:17;11.30;;;6.38;;
69305;SDS011;56427;51.580;4.656;2022-08-02T06:16:43;14.60;;;7.37;;
69305;SDS011;56427;51.580;4.656;2022-08-02T06:19:12;15.98;;;8.38;;
69305;SDS011;56427;51.580;4.656;2022-08-02T06:21:41;12.55;;;7.82;;
69305;SDS011;56427;51.580;4.656;2022-08-02T06:24:07;12.88;;;7.30;;
69305;SDS011;56427;51.580;4.656;2022-08-02T06:26:33;11.55;;;7.78;;
69305;SDS011;56427;51.580;4.656;2022-08-02T06:29:00;13.60;;;8.40;;
69305;SDS011;56427;51.580;4.656;2022-08-02T06:31:26;13.68;;;8.63;;
69305;SDS011;56427;51.580;4.656;2022-08-02T06:33:51;16.10;;;9.20;;
69305;SDS011;56427;51.580;4.656;2022-08-02T06:39:35;12.50;;;8.77;;
69305;SDS011;56427;51.580;4.656;2022-08-02T06:41:57;15.15;;;9.65;;
69305;SDS011;56427;51.580;4.656;2022-08-02T06:44:26;15.45;;;9.68;;
69305;SDS011;56427;51.580;4.656;2022-08-02T06:46:53;15.88;;;10.00;;
69305;SDS011;56427;51.580;4.656;2022-08-02T06:49:18;13.53;;;10.23;;
69305;SDS011;56427;51.580;4.656;2022-08-02T06:51:44;19.50;;;10.90;;
69305;SDS011;56427;51.580;4.656;2022-08-02T06:54:09;18.40;;;10.30;;
69305;SDS011;56427;51.580;4.656;2022-08-02T06:56:35;17.03;;;10.33;;
69305;SDS011;56427;51.580;4.656;2022-08-02T06:59:00;16.48;;;10.25;;
69305;SDS011;56427;51.580;4.656;2022-08-02T07:01:25;16.87;;;11.40;;
69305;SDS011;56427;51.580;4.656;2022-08-02T07:03:51;19.90;;;11.33;;
69305;SDS011;56427;51.580;4.656;2022-08-02T07:06:17;17.10;;;10.60;;
69305;SDS011;56427;51.580;4.656;2022-08-02T07:08:42;19.53;;;11.60;;
69305;SDS011;56427;51.580;4.656;2022-08-02T07:11:07;19.13;;;10.32;;
69305;SDS011;56427;51.580;4.656;2022-08-02T07:13:33;15.80;;;10.00;;
69305;SDS011;56427;51.580;4.656;2022-08-02T07:15:59;16.65;;;10.93;;
69305;SDS011;56427;51.580;4.656;2022-08-02T07:18:26;15.13;;;10.00;;
69305;SDS011;56427;51.580;4.656;2022-08-02T07:20:52;14.57;;;10.07;;
69305;SDS011;56427;51.580;4.656;2022-08-02T07:23:18;13.77;;;9.93;;
69305;SDS011;56427;51.580;4.656;2022-08-02T07:25:44;16.90;;;10.20;;
69305;SDS011;56427;51.580;4.656;2022-08-02T07:28:10;16.45;;;10.52;;
69305;SDS011;56427;51.580;4.656;2022-08-02T07:30:36;13.35;;;10.18;;
69305;SDS011;56427;51.580;4.656;2022-08-02T07:33:02;18.93;;;11.37;;
69305;SDS011;56427;51.580;4.656;2022-08-02T07:35:28;14.85;;;10.77;;
69305;SDS011;56427;51.580;4.656;2022-08-02T07:37:53;14.33;;;10.60;;
69305;SDS011;56427;51.580;4.656;2022-08-02T07:40:19;14.40;;;10.65;;
69305;SDS011;56427;51.580;4.656;2022-08-02T07:42:45;17.20;;;12.00;;
69305;SDS011;56427;51.580;4.656;2022-08-02T07:45:12;17.20;;;10.20;;
69305;SDS011;56427;51.580;4.656;2022-08-02T07:47:39;16.98;;;10.98;;
69305;SDS011;56427;51.580;4.656;2022-08-02T07:50:06;17.30;;;10.77;;
69305;SDS011;56427;51.580;4.656;2022-08-02T07:52:32;16.10;;;9.95;;
69305;SDS011;56427;51.580;4.656;2022-08-02T07:54:58;16.00;;;11.00;;
69305;SDS011;56427;51.580;4.656;2022-08-02T07:57:23;15.30;;;9.20;;
69305;SDS011;56427;51.580;4.656;2022-08-02T07:59:49;12.88;;;8.82;;
69305;SDS011;56427;51.580;4.656;2022-08-02T08:02:15;13.00;;;10.10;;
69305;SDS011;56427;51.580;4.656;2022-08-02T08:04:41;14.07;;;8.63;;
69305;SDS011;56427;51.580;4.656;2022-08-02T08:07:06;12.57;;;8.47;;
69305;SDS011;56427;51.580;4.656;2022-08-02T08:09:34;10.85;;;7.70;;
69305;SDS011;56427;51.580;4.656;2022-08-02T08:12:11;13.15;;;6.38;;
69305;SDS011;56427;51.580;4.656;2022-08-02T08:14:37;10.83;;;5.20;;
69305;SDS011;56427;51.580;4.656;2022-08-02T08:17:03;6.40;;;4.32;;
69305;SDS011;56427;51.580;4.656;2022-08-02T08:19:30;8.60;;;4.40;;
69305;SDS011;56427;51.580;4.656;2022-08-02T08:21:55;6.53;;;4.00;;
69305;SDS011;56427;51.580;4.656;2022-08-02T08:24:23;6.30;;;3.50;;
69305;SDS011;56427;51.580;4.656;2022-08-02T08:26:49;7.83;;;3.60;;
69305;SDS011;56427;51.580;4.656;2022-08-02T08:29:14;5.27;;;2.90;;
69305;SDS011;56427;51.580;4.656;2022-08-02T08:31:39;6.77;;;3.33;;
69305;SDS011;56427;51.580;4.656;2022-08-02T08:34:05;6.88;;;3.20;;
69305;SDS011;56427;51.580;4.656;2022-08-02T08:36:30;7.47;;;3.60;;
69305;SDS011;56427;51.580;4.656;2022-08-02T08:38:56;7.20;;;5.30;;
69305;SDS011;56427;51.580;4.656;2022-08-02T08:41:21;11.10;;;6.27;;
69305;SDS011;56427;51.580;4.656;2022-08-02T08:43:46;6.27;;;4.20;;
69305;SDS011;56427;51.580;4.656;2022-08-02T08:46:28;7.20;;;4.53;;
69305;SDS011;56427;51.580;4.656;2022-08-02T08:49:40;9.30;;;3.80;;
69305;SDS011;56427;51.580;4.656;2022-08-02T08:51:44;7.10;;;3.85;;
69305;SDS011;56427;51.580;4.656;2022-08-02T08:54:12;6.67;;;3.37;;
69305;SDS011;56427;51.580;4.656;2022-08-02T08:56:40;5.60;;;3.58;;
69305;SDS011;56427;51.580;4.656;2022-08-02T08:59:07;4.95;;;2.70;;
69305;SDS011;56427;51.580;4.656;2022-08-02T09:01:32;4.40;;;2.70;;
69305;SDS011;56427;51.580;4.656;2022-08-02T09:03:58;4.55;;;2.45;;
69305;SDS011;56427;51.580;4.656;2022-08-02T09:06:23;3.40;;;2.00;;
69305;SDS011;56427;51.580;4.656;2022-08-02T09:08:49;5.10;;;2.30;;
69305;SDS011;56427;51.580;4.656;2022-08-02T09:11:15;4.38;;;2.08;;
69305;SDS011;56427;51.580;4.656;2022-08-02T09:13:52;6.40;;;2.20;;
69305;SDS011;56427;51.580;4.656;2022-08-02T09:16:29;6.47;;;2.07;;
69305;SDS011;56427;51.580;4.656;2022-08-02T09:18:59;5.47;;;1.75;;
69305;SDS011;56427;51.580;4.656;2022-08-02T09:21:33;3.97;;;2.00;;
69305;SDS011;56427;51.580;4.656;2022-08-02T09:24:00;4.55;;;1.90;;
69305;SDS011;56427;51.580;4.656;2022-08-02T09:26:25;4.50;;;2.10;;
69305;SDS011;56427;51.580;4.656;2022-08-02T09:28:57;4.10;;;1.80;;
69305;SDS011;56427;51.580;4.656;2022-08-02T09:31:25;3.58;;;1.50;;
69305;SDS011;56427;51.580;4.656;2022-08-02T09:33:51;8.27;;;2.03;;
69305;SDS011;56427;51.580;4.656;2022-08-02T09:36:21;3.35;;;2.00;;
69305;SDS011;56427;51.580;4.656;2022-08-02T09:38:58;4.00;;;1.53;;
69305;SDS011;56427;51.580;4.656;2022-08-02T09:41:28;3.75;;;1.75;;
69305;SDS011;56427;51.580;4.656;2022-08-02T09:43:55;4.78;;;1.90;;
69305;SDS011;56427;51.580;4.656;2022-08-02T09:46:23;4.57;;;1.80;;
69305;SDS011;56427;51.580;4.656;2022-08-02T09:48:51;4.68;;;1.80;;
69305;SDS011;56427;51.580;4.656;2022-08-02T09:51:19;5.03;;;1.70;;
69305;SDS011;56427;51.580;4.656;2022-08-02T09:53:56;4.55;;;1.60;;
69305;SDS011;56427;51.580;4.656;2022-08-02T09:56:23;3.40;;;1.85;;
69305;SDS011;56427;51.580;4.656;2022-08-02T09:58:50;4.97;;;1.92;;
69305;SDS011;56427;51.580;4.656;2022-08-02T10:01:18;3.72;;;1.52;;
69305;SDS011;56427;51.580;4.656;2022-08-02T10:03:59;4.40;;;1.77;;
69305;SDS011;56427;51.580;4.656;2022-08-02T10:06:26;3.22;;;1.60;;
69305;SDS011;56427;51.580;4.656;2022-08-02T10:08:52;4.35;;;1.77;;
69305;SDS011;56427;51.580;4.656;2022-08-02T10:11:19;3.75;;;1.70;;
69305;SDS011;56427;51.580;4.656;2022-08-02T10:13:46;3.88;;;1.60;;
69305;SDS011;56427;51.580;4.656;2022-08-02T10:16:12;4.00;;;1.27;;
69305;SDS011;56427;51.580;4.656;2022-08-02T10:18:40;5.75;;;1.33;;
69305;SDS011;56427;51.580;4.656;2022-08-02T10:21:06;4.18;;;1.50;;
69305;SDS011;56427;51.580;4.656;2022-08-02T10:23:37;4.97;;;1.20;;
69305;SDS011;56427;51.580;4.656;2022-08-02T10:26:04;3.97;;;1.50;;
69305;SDS011;56427;51.580;4.656;2022-08-02T10:28:32;5.10;;;1.70;;
69305;SDS011;56427;51.580;4.656;2022-08-02T10:31:01;3.10;;;1.63;;
69305;SDS011;56427;51.580;4.656;2022-08-02T10:56:56;3.05;;;1.60;;
69305;SDS011;56427;51.580;4.656;2022-08-02T10:59:27;4.50;;;1.60;;
69305;SDS011;56427;51.580;4.656;2022-08-02T11:01:57;4.03;;;1.58;;
69305;SDS011;56427;51.580;4.656;2022-08-02T11:04:29;4.13;;;1.40;;
69305;SDS011;56427;51.580;4.656;2022-08-02T11:09:35;4.80;;;1.85;;
69305;SDS011;56427;51.580;4.656;2022-08-02T11:14:27;6.30;;;1.85;;
69305;SDS011;56427;51.580;4.656;2022-08-02T11:19:21;6.53;;;1.70;;
69305;SDS011;56427;51.580;4.656;2022-08-02T11:22:00;2.97;;;1.40;;
69305;SDS011;56427;51.580;4.656;2022-08-02T11:24:31;4.18;;;1.40;;
69305;SDS011;56427;51.580;4.656;2022-08-02T11:26:59;5.00;;;1.50;;
69305;SDS011;56427;51.580;4.656;2022-08-02T11:32:02;6.43;;;1.60;;
69305;SDS011;56427;51.580;4.656;2022-08-02T12:08:06;6.85;;;1.60;;
69305;SDS011;56427;51.580;4.656;2022-08-02T12:10:33;7.80;;;1.60;;
69305;SDS011;56427;51.580;4.656;2022-08-02T12:12:59;5.70;;;1.67;;
69305;SDS011;56427;51.580;4.656;2022-08-02T12:15:31;7.13;;;1.67;;
69305;SDS011;56427;51.580;4.656;2022-08-02T12:18:02;3.63;;;1.92;;
69305;SDS011;56427;51.580;4.656;2022-08-02T12:24:12;4.67;;;1.80;;
69305;SDS011;56427;51.580;4.656;2022-08-02T12:26:50;7.93;;;2.00;;
69305;SDS011;56427;51.580;4.656;2022-08-02T12:29:15;5.17;;;1.80;;
69305;SDS011;56427;51.580;4.656;2022-08-02T12:55:24;7.28;;;2.33;;
69305;SDS011;56427;51.580;4.656;2022-08-02T12:58:08;5.10;;;1.73;;
69305;SDS011;56427;51.580;4.656;2022-08-02T13:00:35;9.45;;;1.40;;
69305;SDS011;56427;51.580;4.656;2022-08-02T13:03:02;6.77;;;1.67;;
69305;SDS011;56427;51.580;4.656;2022-08-02T13:05:28;5.35;;;1.50;;
69305;SDS011;56427;51.580;4.656;2022-08-02T13:07:55;4.78;;;1.58;;
69305;SDS011;56427;51.580;4.656;2022-08-02T13:10:22;7.22;;;1.55;;
69305;SDS011;56427;51.580;4.656;2022-08-02T13:12:48;6.80;;;1.90;;
69305;SDS011;56427;51.580;4.656;2022-08-02T13:15:14;5.53;;;2.00;;
69305;SDS011;56427;51.580;4.656;2022-08-02T13:17:41;8.57;;;1.77;;
69305;SDS011;56427;51.580;4.656;2022-08-02T13:20:06;6.07;;;1.63;;
69305;SDS011;56427;51.580;4.656;2022-08-02T13:22:33;8.40;;;2.35;;
69305;SDS011;56427;51.580;4.656;2022-08-02T13:24:59;5.90;;;2.00;;
69305;SDS011;56427;51.580;4.656;2022-08-02T13:27:25;7.25;;;2.13;;
69305;SDS011;56427;51.580;4.656;2022-08-02T13:29:51;7.13;;;1.70;;
69305;SDS011;56427;51.580;4.656;2022-08-02T13:32:18;8.77;;;1.98;;
69305;SDS011;56427;51.580;4.656;2022-08-02T13:34:44;7.45;;;1.67;;
69305;SDS011;56427;51.580;4.656;2022-08-02T13:37:09;6.13;;;1.80;;
69305;SDS011;56427;51.580;4.656;2022-08-02T13:39:34;6.50;;;1.70;;
69305;SDS011;56427;51.580;4.656;2022-08-02T13:42:00;7.93;;;1.50;;
69305;SDS011;56427;51.580;4.656;2022-08-02T13:44:25;6.95;;;1.77;;
69305;SDS011;56427;51.580;4.656;2022-08-02T13:46:50;11.63;;;2.13;;
69305;SDS011;56427;51.580;4.656;2022-08-02T13:49:16;3.57;;;1.30;;
69305;SDS011;56427;51.580;4.656;2022-08-02T13:51:41;5.10;;;1.93;;
69305;SDS011;56427;51.580;4.656;2022-08-02T13:54:06;5.67;;;1.90;;
69305;SDS011;56427;51.580;4.656;2022-08-02T13:56:31;5.57;;;2.00;;
69305;SDS011;56427;51.580;4.656;2022-08-02T13:58:57;5.43;;;1.80;;
69305;SDS011;56427;51.580;4.656;2022-08-02T14:01:24;6.95;;;1.65;;
69305;SDS011;56427;51.580;4.656;2022-08-02T14:03:50;5.53;;;2.05;;
69305;SDS011;56427;51.580;4.656;2022-08-02T14:06:18;7.03;;;2.20;;
69305;SDS011;56427;51.580;4.656;2022-08-02T14:08:44;7.83;;;1.83;;
69305;SDS011;56427;51.580;4.656;2022-08-02T14:11:09;6.43;;;1.85;;
69305;SDS011;56427;51.580;4.656;2022-08-02T14:13:34;5.93;;;1.50;;
69305;SDS011;56427;51.580;4.656;2022-08-02T14:16:00;4.97;;;1.50;;
69305;SDS011;56427;51.580;4.656;2022-08-02T14:18:25;8.03;;;1.77;;
69305;SDS011;56427;51.580;4.656;2022-08-02T14:20:50;5.20;;;1.50;;
69305;SDS011;56427;51.580;4.656;2022-08-02T14:23:16;7.13;;;1.97;;
69305;SDS011;56427;51.580;4.656;2022-08-02T14:25:41;8.40;;;1.90;;
69305;SDS011;56427;51.580;4.656;2022-08-02T14:28:06;4.63;;;1.60;;
69305;SDS011;56427;51.580;4.656;2022-08-02T14:30:33;5.83;;;1.83;;
69305;SDS011;56427;51.580;4.656;2022-08-02T14:32:58;7.90;;;1.50;;
69305;SDS011;56427;51.580;4.656;2022-08-02T14:35:24;7.80;;;1.73;;
69305;SDS011;56427;51.580;4.656;2022-08-02T14:37:49;6.23;;;1.90;;
69305;SDS011;56427;51.580;4.656;2022-08-02T14:40:15;7.65;;;1.83;;
69305;SDS011;56427;51.580;4.656;2022-08-02T14:42:40;6.50;;;1.67;;
69305;SDS011;56427;51.580;4.656;2022-08-02T14:45:05;6.03;;;1.60;;
69305;SDS011;56427;51.580;4.656;2022-08-02T14:47:31;5.43;;;1.95;;
69305;SDS011;56427;51.580;4.656;2022-08-02T14:49:56;6.37;;;1.57;;
69305;SDS011;56427;51.580;4.656;2022-08-02T14:52:22;6.00;;;1.53;;
69305;SDS011;56427;51.580;4.656;2022-08-02T14:54:47;5.57;;;1.70;;
69305;SDS011;56427;51.580;4.656;2022-08-02T14:57:13;5.47;;;1.80;;
69305;SDS011;56427;51.580;4.656;2022-08-02T14:59:38;7.57;;;1.63;;
69305;SDS011;56427;51.580;4.656;2022-08-02T15:02:04;5.90;;;1.73;;
69305;SDS011;56427;51.580;4.656;2022-08-02T15:04:29;4.77;;;1.60;;
69305;SDS011;56427;51.580;4.656;2022-08-02T15:06:57;4.13;;;1.70;;
69305;SDS011;56427;51.580;4.656;2022-08-02T15:09:22;6.53;;;1.83;;
69305;SDS011;56427;51.580;4.656;2022-08-02T15:11:48;6.83;;;1.90;;
69305;SDS011;56427;51.580;4.656;2022-08-02T15:14:13;3.77;;;1.60;;
69305;SDS011;56427;51.580;4.656;2022-08-02T15:16:39;6.00;;;1.50;;
69305;SDS011;56427;51.580;4.656;2022-08-02T15:19:04;8.27;;;1.80;;
69305;SDS011;56427;51.580;4.656;2022-08-02T15:21:30;6.17;;;2.03;;
69305;SDS011;56427;51.580;4.656;2022-08-02T15:23:55;6.00;;;2.13;;
69305;SDS011;56427;51.580;4.656;2022-08-02T15:26:21;7.17;;;2.10;;
69305;SDS011;56427;51.580;4.656;2022-08-02T15:28:47;4.55;;;1.80;;
69305;SDS011;56427;51.580;4.656;2022-08-02T15:31:12;5.97;;;1.63;;
69305;SDS011;56427;51.580;4.656;2022-08-02T15:33:38;10.03;;;1.93;;
69305;SDS011;56427;51.580;4.656;2022-08-02T15:36:05;8.23;;;1.63;;
69305;SDS011;56427;51.580;4.656;2022-08-02T15:38:30;7.32;;;1.65;;
69305;SDS011;56427;51.580;4.656;2022-08-02T15:40:56;7.43;;;1.67;;
69305;SDS011;56427;51.580;4.656;2022-08-02T15:43:21;6.33;;;2.07;;
69305;SDS011;56427;51.580;4.656;2022-08-02T15:45:46;6.67;;;1.80;;
69305;SDS011;56427;51.580;4.656;2022-08-02T15:48:11;6.30;;;1.67;;
69305;SDS011;56427;51.580;4.656;2022-08-02T15:50:37;6.27;;;1.90;;
69305;SDS011;56427;51.580;4.656;2022-08-02T15:53:03;7.68;;;2.13;;
69305;SDS011;56427;51.580;4.656;2022-08-02T15:55:28;7.30;;;1.83;;
69305;SDS011;56427;51.580;4.656;2022-08-02T15:57:53;5.17;;;1.67;;
69305;SDS011;56427;51.580;4.656;2022-08-02T16:00:21;4.10;;;1.70;;
69305;SDS011;56427;51.580;4.656;2022-08-02T16:02:47;7.38;;;1.80;;
69305;SDS011;56427;51.580;4.656;2022-08-02T16:05:12;5.43;;;1.60;;
69305;SDS011;56427;51.580;4.656;2022-08-02T16:07:37;5.23;;;1.80;;
69305;SDS011;56427;51.580;4.656;2022-08-02T16:10:03;6.43;;;1.77;;
69305;SDS011;56427;51.580;4.656;2022-08-02T16:12:29;6.90;;;2.00;;
69305;SDS011;56427;51.580;4.656;2022-08-02T16:14:55;5.75;;;2.00;;
69305;SDS011;56427;51.580;4.656;2022-08-02T16:17:20;7.23;;;1.77;;
69305;SDS011;56427;51.580;4.656;2022-08-02T16:19:46;5.67;;;1.50;;
69305;SDS011;56427;51.580;4.656;2022-08-02T16:22:11;5.30;;;1.93;;
69305;SDS011;56427;51.580;4.656;2022-08-02T16:24:36;8.85;;;2.83;;
69305;SDS011;56427;51.580;4.656;2022-08-02T17:07:24;8.45;;;1.70;;
69305;SDS011;56427;51.580;4.656;2022-08-02T17:09:49;13.00;;;1.70;;
69305;SDS011;56427;51.580;4.656;2022-08-02T17:30:41;12.43;;;1.80;;